createdAt,value
2023-04-29T00:01:25.362Z,2.10
2023-04-29T00:03:29.624Z,2.10
2023-04-29T00:05:32.650Z,1.93
2023-04-29T00:07:36.467Z,2.00
2023-04-29T00:09:39.243Z,2.10
2023-04-29T00:11:43.445Z,2.20
2023-04-29T00:13:46.213Z,1.97
2023-04-29T00:15:49.202Z,1.70
2023-04-29T00:17:51.960Z,1.80
2023-04-29T00:19:54.948Z,2.30
2023-04-29T00:21:57.857Z,2.00
2023-04-29T00:24:00.945Z,1.73
2023-04-29T00:26:04.115Z,1.90
2023-04-29T00:28:08.491Z,2.10
2023-04-29T00:30:11.996Z,2.00
2023-04-29T00:32:14.780Z,2.00
2023-04-29T00:34:17.849Z,2.10
2023-04-29T00:36:20.738Z,2.10
2023-04-29T00:38:23.686Z,1.90
2023-04-29T00:40:26.489Z,2.00
2023-04-29T00:42:30.251Z,2.00
2023-04-29T00:44:34.374Z,1.87
2023-04-29T00:46:37.269Z,1.98
2023-04-29T00:48:41.374Z,2.15
2023-04-29T00:50:44.560Z,2.07
2023-04-29T00:52:48.794Z,2.17
2023-04-29T00:54:53.024Z,2.20
2023-04-29T00:56:57.157Z,2.20
2023-04-29T00:58:59.930Z,2.10
2023-04-29T01:01:04.713Z,2.20
2023-04-29T01:03:07.809Z,1.90
2023-04-29T01:05:10.699Z,1.83
2023-04-29T01:07:18.188Z,1.97
2023-04-29T01:09:31.935Z,1.77
2023-04-29T01:11:40.916Z,2.33
2023-04-29T01:13:47.481Z,2.00
2023-04-29T01:15:58.874Z,2.00
2023-04-29T01:18:12.027Z,1.90
2023-04-29T01:20:15.100Z,1.93
2023-04-29T01:22:20.062Z,2.05
2023-04-29T01:24:24.472Z,1.90
2023-04-29T01:26:31.747Z,2.00
2023-04-29T01:28:52.100Z,2.08
2023-04-29T01:31:01.240Z,1.63
2023-04-29T01:33:09.909Z,1.73
2023-04-29T01:35:24.926Z,2.07
2023-04-29T01:37:40.249Z,1.85
2023-04-29T01:39:53.991Z,1.80
2023-04-29T01:42:03.117Z,2.00
2023-04-29T01:44:09.940Z,1.70
2023-04-29T01:46:18.445Z,1.83
2023-04-29T01:48:22.035Z,2.10
2023-04-29T01:50:24.880Z,2.17
2023-04-29T01:52:28.746Z,1.83
2023-04-29T01:54:32.725Z,1.70
2023-04-29T01:56:37.015Z,1.80
2023-04-29T01:58:51.427Z,2.00
2023-04-29T02:01:13.128Z,2.40
2023-04-29T02:03:16.572Z,2.65
2023-04-29T02:05:23.211Z,2.00
2023-04-29T02:07:31.376Z,2.10
2023-04-29T02:09:34.299Z,2.25
2023-04-29T02:11:45.101Z,2.00
2023-04-29T02:13:49.933Z,2.03
2023-04-29T02:15:53.619Z,2.30
2023-04-29T02:17:56.503Z,2.17
2023-04-29T02:19:59.370Z,2.45
2023-04-29T02:22:02.164Z,2.25
2023-04-29T02:24:05.272Z,2.40
2023-04-29T02:26:09.329Z,2.00
2023-04-29T02:28:13.598Z,2.43
2023-04-29T02:30:17.365Z,2.17
2023-04-29T02:32:21.118Z,1.93
2023-04-29T02:34:24.094Z,2.10
2023-04-29T02:36:26.859Z,2.33
2023-04-29T02:38:29.665Z,1.90
2023-04-29T02:40:32.908Z,2.33
2023-04-29T02:42:35.746Z,2.40
2023-04-29T02:44:40.152Z,2.20
2023-04-29T02:46:45.808Z,2.10
2023-04-29T02:48:48.776Z,2.20
2023-04-29T02:50:52.798Z,2.30
2023-04-29T02:52:55.631Z,2.00
2023-04-29T02:54:58.394Z,2.10
2023-04-29T02:57:01.475Z,2.40
2023-04-29T02:59:04.295Z,2.03
2023-04-29T03:01:08.664Z,1.90
2023-04-29T03:03:11.753Z,2.03
2023-04-29T03:05:15.482Z,2.40
2023-04-29T03:07:18.564Z,2.00
2023-04-29T03:09:22.121Z,2.20
2023-04-29T03:11:25.448Z,2.58
2023-04-29T03:13:28.262Z,2.70
2023-04-29T03:15:31.191Z,2.63
2023-04-29T03:17:35.515Z,3.05
2023-04-29T03:19:38.265Z,2.63
2023-04-29T03:21:41.084Z,2.47
2023-04-29T03:23:44.817Z,2.80
2023-04-29T03:25:53.255Z,2.47
2023-04-29T03:27:56.063Z,2.53
2023-04-29T03:29:59.207Z,2.65
2023-04-29T03:32:02.730Z,2.60
2023-04-29T03:34:07.312Z,2.50
2023-04-29T03:36:14.389Z,2.63
2023-04-29T03:38:26.962Z,3.10
2023-04-29T03:40:31.023Z,2.70
2023-04-29T03:42:34.768Z,2.70
2023-04-29T03:44:37.704Z,2.70
2023-04-29T03:46:40.535Z,2.60
2023-04-29T03:48:43.407Z,2.60
2023-04-29T03:50:47.807Z,2.80
2023-04-29T03:52:50.700Z,2.60
2023-04-29T03:54:55.049Z,2.97
2023-04-29T03:56:58.159Z,2.60
2023-04-29T03:59:01.012Z,2.83
2023-04-29T04:01:03.940Z,3.08
2023-04-29T04:03:16.128Z,3.10
2023-04-29T04:05:21.027Z,3.10
2023-04-29T04:07:30.378Z,3.30
2023-04-29T04:10:09.145Z,3.10
2023-04-29T04:12:12.237Z,3.35
2023-04-29T04:14:15.184Z,3.20
2023-04-29T04:16:18.092Z,3.25
2023-04-29T04:18:21.011Z,3.30
2023-04-29T04:20:23.889Z,3.05
2023-04-29T04:22:26.807Z,3.33
2023-04-29T04:24:47.417Z,3.95
2023-04-29T04:26:50.255Z,3.10
2023-04-29T04:29:10.215Z,3.70
2023-04-29T04:31:22.553Z,6.35
2023-04-29T04:33:27.404Z,5.15
2023-04-29T04:35:30.371Z,6.30
2023-04-29T04:37:33.163Z,5.18
2023-04-29T04:39:37.205Z,4.28
2023-04-29T04:41:41.371Z,3.97
2023-04-29T04:43:45.106Z,4.35
2023-04-29T04:45:57.377Z,5.05
2023-04-29T04:48:01.364Z,4.03
2023-04-29T04:50:08.984Z,3.30
2023-04-29T04:52:13.088Z,3.20
2023-04-29T04:54:15.876Z,3.58
2023-04-29T04:56:18.806Z,3.45
2023-04-29T04:58:23.765Z,3.83
2023-04-29T05:00:26.607Z,4.18
2023-04-29T05:02:29.522Z,3.78
2023-04-29T05:04:32.471Z,3.40
2023-04-29T05:06:35.329Z,3.40
2023-04-29T05:08:38.192Z,3.05
2023-04-29T05:10:44.600Z,3.92
2023-04-29T05:12:48.427Z,3.00
2023-04-29T05:14:55.375Z,3.17
2023-04-29T05:17:00.094Z,2.70
2023-04-29T05:19:03.472Z,3.00
2023-04-29T05:21:10.768Z,2.58
2023-04-29T05:23:13.564Z,2.55
2023-04-29T05:25:18.581Z,2.67
2023-04-29T05:27:21.343Z,2.22
2023-04-29T05:29:24.215Z,2.28
2023-04-29T05:31:33.750Z,1.73
2023-04-29T05:33:39.533Z,2.00
2023-04-29T05:35:42.282Z,2.00
2023-04-29T05:37:45.789Z,1.80
2023-04-29T05:40:00.239Z,1.63
2023-04-29T05:42:03.333Z,1.60
2023-04-29T05:44:16.351Z,1.30
2023-04-29T05:46:20.543Z,1.50
2023-04-29T05:48:26.631Z,1.63
2023-04-29T05:50:29.426Z,1.45
2023-04-29T05:52:32.225Z,1.30
2023-04-29T05:54:35.327Z,1.33
2023-04-29T05:56:38.220Z,1.50
2023-04-29T05:58:41.084Z,1.52
2023-04-29T06:00:44.188Z,1.50
2023-04-29T06:02:58.854Z,1.67
2023-04-29T06:05:05.434Z,1.55
2023-04-29T06:07:29.367Z,1.25
2023-04-29T06:09:36.514Z,1.45
2023-04-29T06:11:39.265Z,1.38
2023-04-29T06:13:42.063Z,1.20
2023-04-29T06:15:45.456Z,1.20
2023-04-29T06:17:49.848Z,1.10
2023-04-29T06:19:52.839Z,1.30
2023-04-29T06:21:58.653Z,1.50
2023-04-29T06:24:01.518Z,1.37
2023-04-29T06:26:04.311Z,1.35
2023-04-29T06:28:08.483Z,1.27
2023-04-29T06:30:13.273Z,0.90
2023-04-29T06:32:16.262Z,1.00
2023-04-29T06:34:21.804Z,0.90
2023-04-29T06:36:43.053Z,0.90
2023-04-29T06:39:16.692Z,1.10
2023-04-29T06:41:45.720Z,1.10
2023-04-29T06:44:20.540Z,0.98
2023-04-29T06:46:32.000Z,1.10
2023-04-29T06:48:45.900Z,1.10
2023-04-29T06:50:52.233Z,1.50
2023-04-29T06:52:54.978Z,3.07
2023-04-29T06:54:59.145Z,1.77
2023-04-29T06:57:02.202Z,1.57
2023-04-29T06:59:05.469Z,0.73
2023-04-29T07:01:11.007Z,0.90
2023-04-29T07:03:14.573Z,0.70
2023-04-29T07:05:17.486Z,0.90
2023-04-29T07:07:20.263Z,1.10
2023-04-29T07:09:23.660Z,1.23
2023-04-29T07:11:28.359Z,0.93
2023-04-29T07:13:31.626Z,1.00
2023-04-29T07:15:35.980Z,1.10
2023-04-29T07:17:39.214Z,1.10
2023-04-29T07:19:41.998Z,1.27
2023-04-29T07:21:44.769Z,1.20
2023-04-29T07:23:48.002Z,1.00
2023-04-29T07:25:52.314Z,1.20
2023-04-29T07:27:58.519Z,1.20
2023-04-29T07:30:02.138Z,1.13
2023-04-29T07:32:05.824Z,1.20
2023-04-29T07:34:11.518Z,1.20
2023-04-29T07:36:14.799Z,1.03
2023-04-29T07:38:17.602Z,1.20
2023-04-29T07:40:20.708Z,1.00
2023-04-29T07:42:24.020Z,1.57
2023-04-29T07:44:29.508Z,1.30
2023-04-29T07:46:33.178Z,1.50
2023-04-29T07:48:39.207Z,1.20
2023-04-29T07:50:42.628Z,1.20
2023-04-29T07:52:45.762Z,1.00
2023-04-29T07:54:48.482Z,1.47
2023-04-29T07:56:51.526Z,1.20
2023-04-29T07:58:56.196Z,1.40
2023-04-29T08:01:06.671Z,1.00
2023-04-29T08:03:09.487Z,0.90
2023-04-29T08:05:12.682Z,1.00
2023-04-29T08:07:15.649Z,3.70
2023-04-29T08:09:18.434Z,1.23
2023-04-29T08:11:24.458Z,1.20
2023-04-29T08:13:27.220Z,2.90
2023-04-29T08:15:30.020Z,0.80
2023-04-29T08:17:34.189Z,0.87
2023-04-29T08:19:37.004Z,1.03
2023-04-29T08:21:39.730Z,1.10
2023-04-29T08:23:42.485Z,1.30
2023-04-29T08:25:45.270Z,0.97
2023-04-29T08:27:48.034Z,0.80
2023-04-29T08:29:51.052Z,0.73
2023-04-29T08:31:54.848Z,0.90
2023-04-29T08:33:59.673Z,0.93
2023-04-29T08:36:03.675Z,0.73
2023-04-29T08:38:07.271Z,0.70
2023-04-29T08:40:10.896Z,0.60
2023-04-29T08:42:13.756Z,0.50
2023-04-29T08:44:17.345Z,1.00
2023-04-29T08:46:21.207Z,0.70
2023-04-29T08:48:24.218Z,0.70
2023-04-29T08:50:29.333Z,0.60
2023-04-29T08:52:32.513Z,0.40
2023-04-29T08:54:36.196Z,0.50
2023-04-29T08:56:40.543Z,0.53
2023-04-29T08:58:43.935Z,0.50
2023-04-29T09:00:47.333Z,0.70
2023-04-29T09:02:52.418Z,0.50
2023-04-29T09:05:05.488Z,0.60
2023-04-29T09:07:12.494Z,0.60
2023-04-29T09:09:15.686Z,0.60
2023-04-29T09:11:19.282Z,0.60
2023-04-29T09:13:26.494Z,0.53
2023-04-29T09:15:29.235Z,0.60
2023-04-29T09:17:42.643Z,0.70
2023-04-29T09:19:45.852Z,0.80
2023-04-29T09:21:56.288Z,1.10
2023-04-29T09:24:02.321Z,1.10
2023-04-29T09:26:05.145Z,1.40
2023-04-29T09:28:16.668Z,1.20
2023-04-29T09:30:19.668Z,0.80
2023-04-29T09:32:22.425Z,0.90
2023-04-29T09:34:32.830Z,0.73
2023-04-29T09:36:44.962Z,1.10
2023-04-29T09:38:55.891Z,1.10
2023-04-29T09:41:01.317Z,0.90
2023-04-29T09:43:12.634Z,0.70
2023-04-29T09:45:33.599Z,0.93
2023-04-29T09:47:36.512Z,1.13
2023-04-29T09:49:41.178Z,1.00
2023-04-29T09:51:53.510Z,0.80
2023-04-29T09:53:56.233Z,0.70
2023-04-29T09:56:02.030Z,0.87
2023-04-29T09:58:04.901Z,0.70
2023-04-29T10:00:09.214Z,0.90
2023-04-29T10:02:17.768Z,1.00
2023-04-29T10:04:22.418Z,0.80
2023-04-29T10:06:26.706Z,0.97
2023-04-29T10:08:30.933Z,0.80
2023-04-29T10:10:33.680Z,1.20
2023-04-29T10:12:38.638Z,0.90
2023-04-29T10:14:48.862Z,1.20
2023-04-29T10:17:00.146Z,1.00
2023-04-29T10:19:08.697Z,0.90
2023-04-29T10:21:14.792Z,1.00
2023-04-29T10:23:20.061Z,1.00
2023-04-29T10:25:24.593Z,1.00
2023-04-29T10:27:28.964Z,1.00
2023-04-29T10:29:35.686Z,1.20
2023-04-29T10:31:40.429Z,1.17
2023-04-29T10:33:45.893Z,1.57
2023-04-29T10:35:50.920Z,1.10
2023-04-29T10:37:55.251Z,1.00
2023-04-29T10:40:09.452Z,0.80
2023-04-29T10:42:22.103Z,0.97
2023-04-29T10:44:25.173Z,1.10
2023-04-29T10:46:29.553Z,0.90
2023-04-29T10:48:33.634Z,1.73
2023-04-29T10:50:42.338Z,1.03
2023-04-29T10:52:55.934Z,1.37
2023-04-29T10:55:04.550Z,1.00
2023-04-29T10:57:07.300Z,1.27
2023-04-29T10:59:14.544Z,1.20
2023-04-29T11:01:18.759Z,1.33
2023-04-29T11:03:48.821Z,1.00
2023-04-29T11:06:09.919Z,1.20
2023-04-29T11:08:13.328Z,1.83
2023-04-29T11:10:16.249Z,1.10
2023-04-29T11:12:21.790Z,1.50
2023-04-29T11:14:27.556Z,1.40
2023-04-29T11:16:30.430Z,1.10
2023-04-29T11:18:35.451Z,1.10
2023-04-29T11:21:11.530Z,1.40
2023-04-29T11:23:14.345Z,0.93
2023-04-29T11:25:17.701Z,1.03
2023-04-29T11:27:25.102Z,0.90
2023-04-29T11:29:28.874Z,0.93
2023-04-29T11:31:32.219Z,0.90
2023-04-29T11:33:36.470Z,1.60
2023-04-29T11:35:41.010Z,1.20
2023-04-29T11:37:45.858Z,1.07
2023-04-29T11:39:49.190Z,1.40
2023-04-29T11:41:52.761Z,1.20
2023-04-29T11:43:59.093Z,1.90
2023-04-29T11:46:01.957Z,1.90
2023-04-29T11:48:05.754Z,1.60
2023-04-29T11:50:11.302Z,1.50
2023-04-29T11:52:14.601Z,1.60
2023-04-29T11:54:17.435Z,1.83
2023-04-29T11:56:24.238Z,1.67
2023-04-29T11:58:27.002Z,1.73
2023-04-29T12:00:31.802Z,2.10
2023-04-29T12:02:35.713Z,1.33
2023-04-29T12:04:46.741Z,1.70
2023-04-29T12:06:54.036Z,2.33
2023-04-29T12:08:56.811Z,2.00
2023-04-29T12:11:00.923Z,1.90
2023-04-29T12:13:04.385Z,2.20
2023-04-29T12:15:09.867Z,2.00
2023-04-29T12:17:13.205Z,1.90
2023-04-29T12:19:16.450Z,1.93
2023-04-29T12:21:19.242Z,2.00
2023-04-29T12:23:26.702Z,2.27
2023-04-29T12:25:30.215Z,2.60
2023-04-29T12:27:33.874Z,2.20
2023-04-29T12:29:37.276Z,1.97
2023-04-29T12:31:40.136Z,1.87
2023-04-29T12:33:44.756Z,2.00
2023-04-29T12:35:47.502Z,2.10
2023-04-29T12:37:51.307Z,1.93
2023-04-29T12:39:56.536Z,2.03
2023-04-29T12:42:00.034Z,1.97
2023-04-29T12:44:04.216Z,1.80
2023-04-29T12:46:07.918Z,1.67
2023-04-29T12:48:22.125Z,2.00
2023-04-29T12:50:33.813Z,1.83
2023-04-29T12:52:37.035Z,2.03
2023-04-29T12:54:41.769Z,2.30
2023-04-29T12:56:48.432Z,2.70
2023-04-29T12:58:51.588Z,2.00
2023-04-29T13:00:54.354Z,1.53
2023-04-29T13:02:58.069Z,1.90
2023-04-29T13:05:01.586Z,1.50
2023-04-29T13:07:05.933Z,1.37
2023-04-29T13:09:17.054Z,1.60
2023-04-29T13:11:21.263Z,1.63
2023-04-29T13:13:25.487Z,1.60
2023-04-29T13:15:28.525Z,1.63
2023-04-29T13:17:31.399Z,1.60
2023-04-29T13:19:49.795Z,2.63
2023-04-29T13:21:54.274Z,1.90
2023-04-29T13:23:57.075Z,2.43
2023-04-29T13:25:59.867Z,1.93
2023-04-29T13:28:02.742Z,1.53
2023-04-29T13:30:08.833Z,2.13
2023-04-29T13:32:11.677Z,2.17
2023-04-29T13:34:14.606Z,1.67
2023-04-29T13:36:17.556Z,1.77
2023-04-29T13:38:20.317Z,1.40
2023-04-29T13:40:27.393Z,2.20
2023-04-29T13:42:32.637Z,1.60
2023-04-29T13:44:51.610Z,1.67
2023-04-29T13:46:57.519Z,1.70
2023-04-29T13:51:48.088Z,1.60
2023-04-29T13:53:50.040Z,1.50
2023-04-29T13:56:41.735Z,1.70
2023-04-29T13:58:56.021Z,2.53
2023-04-29T14:01:05.837Z,1.40
2023-04-29T14:03:03.456Z,1.60
2023-04-29T14:05:07.160Z,1.40
2023-04-29T14:07:09.932Z,1.30
2023-04-29T14:09:12.761Z,1.40
2023-04-29T14:11:16.213Z,1.50
2023-04-29T14:13:19.002Z,1.50
2023-04-29T14:15:21.796Z,1.60
2023-04-29T14:17:24.566Z,2.30
2023-04-29T14:19:28.705Z,2.10
2023-04-29T14:21:33.182Z,2.00
2023-04-29T14:23:36.124Z,3.53
2023-04-29T14:25:38.873Z,2.33
2023-04-29T14:27:41.826Z,2.93
2023-04-29T14:29:44.708Z,10.90
2023-04-29T14:31:47.659Z,4.33
2023-04-29T14:33:51.327Z,3.83
2023-04-29T14:35:55.673Z,3.60
2023-04-29T14:37:58.407Z,3.50
2023-04-29T14:40:01.175Z,3.80
2023-04-29T14:42:04.377Z,3.40
2023-04-29T14:44:07.246Z,3.90
2023-04-29T14:46:10.291Z,3.47
2023-04-29T14:48:13.175Z,3.30
2023-04-29T14:50:16.233Z,3.40
2023-04-29T14:52:20.470Z,3.83
2023-04-29T14:54:24.577Z,2.70
2023-04-29T14:56:27.832Z,4.30
2023-04-29T14:58:30.906Z,4.40
2023-04-29T15:00:33.635Z,4.20
2023-04-29T15:02:36.482Z,4.83
2023-04-29T15:04:43.109Z,5.13
2023-04-29T15:06:45.936Z,4.20
2023-04-29T15:08:50.083Z,4.30
2023-04-29T15:10:52.993Z,4.47
2023-04-29T15:12:55.945Z,4.50
2023-04-29T15:14:59.066Z,4.47
2023-04-29T15:17:01.986Z,5.17
2023-04-29T15:19:05.156Z,4.60
2023-04-29T15:21:07.920Z,4.30
2023-04-29T15:23:11.119Z,4.97
2023-04-29T15:25:15.685Z,4.97
2023-04-29T15:27:18.466Z,4.60
2023-04-29T15:29:21.458Z,5.50
2023-04-29T15:31:25.505Z,4.50
2023-04-29T15:33:28.950Z,4.70
2023-04-29T15:35:31.739Z,5.03
2023-04-29T15:37:34.592Z,5.07
2023-04-29T15:39:37.311Z,5.10
2023-04-29T15:41:41.578Z,5.50
2023-04-29T15:43:44.390Z,5.30
2023-04-29T15:45:47.178Z,5.43
2023-04-29T15:47:50.045Z,5.30
2023-04-29T15:49:53.139Z,5.13
2023-04-29T15:51:56.598Z,5.30
2023-04-29T15:53:59.501Z,5.17
2023-04-29T15:56:02.678Z,6.30
2023-04-29T15:58:06.847Z,6.03
2023-04-29T16:00:11.248Z,6.00
2023-04-29T16:02:15.278Z,5.90
2023-04-29T16:04:18.457Z,6.13
2023-04-29T16:06:21.288Z,5.93
2023-04-29T16:08:24.111Z,5.50
2023-04-29T16:10:26.993Z,6.00
2023-04-29T16:12:29.760Z,6.40
2023-04-29T16:14:33.902Z,6.30
2023-04-29T16:16:36.740Z,6.10
2023-04-29T16:18:39.658Z,6.13
2023-04-29T16:20:42.790Z,6.37
2023-04-29T16:22:45.638Z,6.13
2023-04-29T16:24:49.867Z,6.50
2023-04-29T16:26:52.844Z,6.30
2023-04-29T16:28:55.802Z,5.87
2023-04-29T16:31:00.120Z,5.70
2023-04-29T16:33:03.055Z,5.80
2023-04-29T16:35:06.305Z,5.57
2023-04-29T16:37:12.481Z,6.63
2023-04-29T16:39:15.530Z,6.70
2023-04-29T16:41:18.538Z,6.57
2023-04-29T16:43:21.292Z,6.23
2023-04-29T16:45:25.170Z,6.90
2023-04-29T16:47:29.360Z,6.80
2023-04-29T16:49:32.781Z,6.70
2023-04-29T16:51:35.736Z,6.43
2023-04-29T16:53:38.565Z,6.80
2023-04-29T16:55:41.417Z,6.47
2023-04-29T16:57:44.318Z,6.50
2023-04-29T16:59:47.160Z,7.27
2023-04-29T17:01:50.188Z,7.60
2023-04-29T17:03:54.744Z,7.63
2023-04-29T17:05:57.681Z,8.07
2023-04-29T17:08:00.690Z,7.37
2023-04-29T17:10:03.771Z,7.00
2023-04-29T17:12:07.927Z,7.43
2023-04-29T17:14:10.754Z,7.97
2023-04-29T17:16:14.279Z,8.00
2023-04-29T17:18:17.272Z,7.00
2023-04-29T17:20:21.672Z,7.83
2023-04-29T17:22:24.625Z,7.03
2023-04-29T17:24:30.036Z,7.37
2023-04-29T17:26:33.325Z,7.07
2023-04-29T17:28:41.736Z,7.53
2023-04-29T17:30:44.590Z,6.70
2023-04-29T17:32:49.717Z,6.37
2023-04-29T17:34:54.823Z,7.27
2023-04-29T17:36:58.946Z,3.67
2023-04-29T17:39:01.851Z,4.40
2023-04-29T17:41:06.529Z,3.63
2023-04-29T17:43:09.241Z,4.10
2023-04-29T17:45:13.274Z,4.67
2023-04-29T17:47:17.527Z,7.40
2023-04-29T17:49:20.360Z,7.87
2023-04-29T17:51:24.082Z,8.07
2023-04-29T17:53:28.587Z,9.10
2023-04-29T17:55:31.408Z,12.40
2023-04-29T17:57:34.105Z,8.67
2023-04-29T17:59:36.825Z,8.33
2023-04-29T18:01:39.988Z,7.43
2023-04-29T18:03:43.153Z,6.80
2023-04-29T18:05:46.414Z,6.37
2023-04-29T18:07:49.201Z,6.40
2023-04-29T18:09:53.533Z,6.43
2023-04-29T18:11:56.578Z,6.30
2023-04-29T18:13:59.607Z,7.20
2023-04-29T18:16:02.680Z,6.83
2023-04-29T18:18:05.443Z,6.17
2023-04-29T18:20:09.264Z,7.47
2023-04-29T18:22:12.098Z,6.63
2023-04-29T18:24:15.721Z,6.10
2023-04-29T18:26:19.856Z,6.03
2023-04-29T18:28:25.151Z,6.33
2023-04-29T18:30:28.358Z,11.80
2023-04-29T18:32:31.147Z,6.83
2023-04-29T18:34:34.101Z,6.33
2023-04-29T18:36:36.855Z,6.37
2023-04-29T18:38:39.774Z,6.00
2023-04-29T18:40:42.520Z,6.13
2023-04-29T18:42:46.657Z,5.40
2023-04-29T18:44:51.197Z,5.50
2023-04-29T18:46:54.002Z,5.43
2023-04-29T18:48:56.873Z,5.00
2023-04-29T18:51:00.363Z,4.73
2023-04-29T18:53:03.090Z,5.23
2023-04-29T18:55:06.843Z,4.73
2023-04-29T18:57:09.839Z,4.60
2023-04-29T18:59:15.859Z,4.80
2023-04-29T19:01:18.565Z,4.90
2023-04-29T19:03:21.805Z,4.83
2023-04-29T19:05:24.794Z,5.00
2023-04-29T19:07:27.641Z,5.30
2023-04-29T19:09:31.669Z,5.23
2023-04-29T19:11:34.641Z,15.20
2023-04-29T19:13:37.481Z,10.97
2023-04-29T19:15:41.642Z,7.27
2023-04-29T19:17:45.084Z,9.17
2023-04-29T19:19:47.907Z,5.33
2023-04-29T19:21:50.814Z,4.97
2023-04-29T19:23:53.689Z,16.77
2023-04-29T19:25:56.499Z,6.17
2023-04-29T19:27:59.289Z,5.83
2023-04-29T19:30:02.075Z,5.37
2023-04-29T19:32:06.270Z,5.70
2023-04-29T19:34:09.116Z,5.17
2023-04-29T19:36:14.268Z,5.27
2023-04-29T19:38:17.167Z,5.20
2023-04-29T19:40:20.028Z,5.20
2023-04-29T19:42:22.838Z,5.80
2023-04-29T19:44:25.671Z,5.63
2023-04-29T19:46:28.597Z,6.07
2023-04-29T19:48:32.836Z,6.33
2023-04-29T19:50:35.627Z,6.10
2023-04-29T19:52:38.639Z,5.73
2023-04-29T19:54:42.532Z,5.97
2023-04-29T19:56:45.390Z,5.97
2023-04-29T19:58:48.682Z,6.20
2023-04-29T20:00:52.908Z,6.17
2023-04-29T20:02:56.528Z,5.50
2023-04-29T20:05:01.092Z,5.37
2023-04-29T20:07:03.918Z,6.27
2023-04-29T20:09:09.063Z,6.37
2023-04-29T20:11:13.257Z,12.80
2023-04-29T20:13:16.256Z,8.70
2023-04-29T20:15:19.423Z,8.00
2023-04-29T20:17:22.500Z,10.43
2023-04-29T20:19:25.795Z,6.77
2023-04-29T20:21:31.129Z,6.30
2023-04-29T20:23:34.359Z,6.20
2023-04-29T20:25:38.351Z,5.90
2023-04-29T20:27:42.068Z,6.30
2023-04-29T20:29:46.027Z,6.30
2023-04-29T20:31:50.563Z,6.57
2023-04-29T20:33:55.175Z,7.40
2023-04-29T20:36:05.601Z,7.18
2023-04-29T20:38:11.149Z,6.67
2023-04-29T20:40:14.800Z,7.37
2023-04-29T20:42:18.696Z,7.77
2023-04-29T20:44:22.739Z,7.23
2023-04-29T20:46:26.358Z,6.90
2023-04-29T20:48:30.178Z,6.80
2023-04-29T20:50:34.127Z,7.30
2023-04-29T20:52:41.709Z,8.03
2023-04-29T20:54:47.174Z,8.48
2023-04-29T20:56:50.827Z,8.00
2023-04-29T20:58:54.197Z,7.90
2023-04-29T21:00:57.757Z,8.50
2023-04-29T21:03:01.396Z,9.07
2023-04-29T21:05:05.693Z,9.40
2023-04-29T21:07:10.212Z,9.40
2023-04-29T21:09:13.693Z,8.20
2023-04-29T21:11:18.080Z,8.30
2023-04-29T21:13:21.314Z,9.00
2023-04-29T21:15:27.000Z,8.37
2023-04-29T21:17:30.549Z,8.80
2023-04-29T21:19:36.268Z,8.50
2023-04-29T21:21:39.751Z,8.57
2023-04-29T21:23:43.370Z,9.07
2023-04-29T21:25:49.331Z,9.17
2023-04-29T21:27:53.980Z,8.57
2023-04-29T21:29:58.312Z,8.47
2023-04-29T21:32:05.323Z,8.83
2023-04-29T21:34:08.744Z,9.90
2023-04-29T21:36:12.163Z,13.83
2023-04-29T21:38:16.474Z,16.27
2023-04-29T21:40:20.639Z,17.70
2023-04-29T21:42:26.286Z,11.80
2023-04-29T21:44:30.953Z,8.67
2023-04-29T21:46:35.249Z,8.10
2023-04-29T21:48:38.102Z,8.57
2023-04-29T21:50:42.321Z,9.47
2023-04-29T21:52:45.949Z,8.43
2023-04-29T21:54:49.426Z,8.77
2023-04-29T21:56:52.646Z,8.70
2023-04-29T21:58:56.242Z,8.90
2023-04-29T22:01:03.500Z,8.63
2023-04-29T22:03:09.045Z,8.27
2023-04-29T22:05:11.932Z,8.97
2023-04-29T22:07:14.740Z,8.03
2023-04-29T22:09:17.571Z,8.10
2023-04-29T22:11:21.462Z,8.23
2023-04-29T22:13:24.272Z,7.97
2023-04-29T22:15:29.276Z,9.40
2023-04-29T22:17:33.837Z,8.60
2023-04-29T22:19:36.610Z,9.10
2023-04-29T22:21:40.810Z,8.37
2023-04-29T22:23:43.631Z,8.57
2023-04-29T22:25:46.672Z,8.93
2023-04-29T22:27:49.594Z,8.95
2023-04-29T22:29:52.528Z,8.27
2023-04-29T22:31:56.142Z,7.90
2023-04-29T22:34:00.414Z,7.93
2023-04-29T22:36:03.601Z,8.43
2023-04-29T22:38:06.481Z,8.90
2023-04-29T22:40:10.368Z,8.00
2023-04-29T22:42:13.194Z,8.37
2023-04-29T22:44:16.403Z,7.70
2023-04-29T22:46:19.183Z,7.82
2023-04-29T22:48:22.832Z,7.83
2023-04-29T22:50:27.764Z,8.60
2023-04-29T22:52:32.719Z,7.83
2023-04-29T22:54:35.682Z,7.57
2023-04-29T22:56:38.509Z,7.63
2023-04-29T22:58:41.360Z,7.97
2023-04-29T23:00:44.997Z,7.97
2023-04-29T23:02:47.796Z,8.18
2023-04-29T23:04:50.750Z,7.63
2023-04-29T23:06:55.030Z,7.80
2023-04-29T23:08:57.850Z,8.13
2023-04-29T23:11:00.674Z,7.72
2023-04-29T23:13:03.756Z,7.93
2023-04-29T23:15:07.455Z,7.70
2023-04-29T23:17:10.727Z,7.45
2023-04-29T23:19:13.538Z,7.72
2023-04-29T23:21:16.382Z,8.00
2023-04-29T23:23:20.666Z,10.00
2023-04-29T23:25:23.518Z,7.60
2023-04-29T23:27:26.419Z,7.93
2023-04-29T23:29:29.203Z,8.60
2023-04-29T23:31:32.044Z,7.80
2023-04-29T23:33:34.950Z,7.80
2023-04-29T23:35:37.727Z,7.72
2023-04-29T23:37:40.545Z,7.13
2023-04-29T23:39:44.720Z,7.20
2023-04-29T23:41:47.642Z,6.78
2023-04-29T23:43:50.457Z,7.22
2023-04-29T23:45:53.334Z,7.13
2023-04-29T23:47:56.583Z,7.15
2023-04-29T23:49:59.542Z,6.72
2023-04-29T23:52:02.391Z,7.35
2023-04-29T23:54:05.425Z,7.28
2023-04-29T23:56:09.695Z,7.50
2023-04-29T23:58:12.502Z,7.53
